sensor_id;sensor_type;location;lat;lon;timestamp;temperature;humidity
20732;DHT22;10527;52.124;5.196;2022-12-10T00:01:36;0.70;99.90
20732;DHT22;10527;52.124;5.196;2022-12-10T00:04:04;0.70;99.90
20732;DHT22;10527;52.124;5.196;2022-12-10T00:06:34;0.70;99.90
20732;DHT22;10527;52.124;5.196;2022-12-10T00:09:04;0.80;99.90
20732;DHT22;10527;52.124;5.196;2022-12-10T00:11:34;0.70;99.90
20732;DHT22;10527;52.124;5.196;2022-12-10T00:14:01;0.70;99.90
20732;DHT22;10527;52.124;5.196;2022-12-10T00:16:29;0.80;99.90
20732;DHT22;10527;52.124;5.196;2022-12-10T00:18:57;0.80;99.90
20732;DHT22;10527;52.124;5.196;2022-12-10T00:21:27;0.90;99.90
20732;DHT22;10527;52.124;5.196;2022-12-10T00:23:56;0.80;99.90
20732;DHT22;10527;52.124;5.196;2022-12-10T00:26:29;0.70;99.90
20732;DHT22;10527;52.124;5.196;2022-12-10T00:28:59;0.70;99.90
20732;DHT22;10527;52.124;5.196;2022-12-10T00:31:29;0.70;99.90
20732;DHT22;10527;52.124;5.196;2022-12-10T00:34:01;0.60;99.90
20732;DHT22;10527;52.124;5.196;2022-12-10T00:36:33;0.70;99.90
20732;DHT22;10527;52.124;5.196;2022-12-10T00:39:04;0.60;99.90
20732;DHT22;10527;52.124;5.196;2022-12-10T00:41:32;0.60;99.90
20732;DHT22;10527;52.124;5.196;2022-12-10T00:43:59;0.60;99.90
20732;DHT22;10527;52.124;5.196;2022-12-10T00:46:27;0.60;99.90
20732;DHT22;10527;52.124;5.196;2022-12-10T00:48:54;0.60;99.90
20732;DHT22;10527;52.124;5.196;2022-12-10T00:51:23;0.70;99.90
20732;DHT22;10527;52.124;5.196;2022-12-10T00:53:54;0.70;99.90
20732;DHT22;10527;52.124;5.196;2022-12-10T00:56:27;0.80;99.90
20732;DHT22;10527;52.124;5.196;2022-12-10T00:58:56;0.70;99.90
20732;DHT22;10527;52.124;5.196;2022-12-10T01:01:35;0.70;99.90
20732;DHT22;10527;52.124;5.196;2022-12-10T01:04:07;0.70;99.90
20732;DHT22;10527;52.124;5.196;2022-12-10T01:06:49;0.60;99.90
20732;DHT22;10527;52.124;5.196;2022-12-10T01:09:24;0.60;99.90
20732;DHT22;10527;52.124;5.196;2022-12-10T01:11:53;0.50;99.90
20732;DHT22;10527;52.124;5.196;2022-12-10T01:14:24;0.50;99.90
20732;DHT22;10527;52.124;5.196;2022-12-10T01:16:54;0.60;99.90
20732;DHT22;10527;52.124;5.196;2022-12-10T01:19:23;0.60;99.90
20732;DHT22;10527;52.124;5.196;2022-12-10T01:21:52;0.60;99.90
20732;DHT22;10527;52.124;5.196;2022-12-10T01:24:21;0.60;99.90
20732;DHT22;10527;52.124;5.196;2022-12-10T01:26:50;0.60;99.90
20732;DHT22;10527;52.124;5.196;2022-12-10T01:29:18;0.60;99.90
20732;DHT22;10527;52.124;5.196;2022-12-10T01:31:45;0.70;99.90
20732;DHT22;10527;52.124;5.196;2022-12-10T01:34:14;0.60;99.90
20732;DHT22;10527;52.124;5.196;2022-12-10T01:36:44;0.60;99.90
20732;DHT22;10527;52.124;5.196;2022-12-10T01:39:14;0.60;99.90
20732;DHT22;10527;52.124;5.196;2022-12-10T01:41:49;0.50;99.90
20732;DHT22;10527;52.124;5.196;2022-12-10T01:46:55;0.50;99.90
20732;DHT22;10527;52.124;5.196;2022-12-10T01:49:45;0.40;99.90
20732;DHT22;10527;52.124;5.196;2022-12-10T01:52:11;0.40;99.90
20732;DHT22;10527;52.124;5.196;2022-12-10T01:54:43;0.40;99.90
20732;DHT22;10527;52.124;5.196;2022-12-10T01:57:21;0.40;99.90
20732;DHT22;10527;52.124;5.196;2022-12-10T01:59:58;0.40;99.90
20732;DHT22;10527;52.124;5.196;2022-12-10T02:02:49;0.40;99.90
20732;DHT22;10527;52.124;5.196;2022-12-10T02:05:44;0.40;99.90
20732;DHT22;10527;52.124;5.196;2022-12-10T02:08:32;0.40;99.90
20732;DHT22;10527;52.124;5.196;2022-12-10T02:11:28;0.40;99.90
20732;DHT22;10527;52.124;5.196;2022-12-10T02:14:12;0.50;99.90
20732;DHT22;10527;52.124;5.196;2022-12-10T02:17:11;0.50;99.90
20732;DHT22;10527;52.124;5.196;2022-12-10T02:22:26;0.40;99.90
20732;DHT22;10527;52.124;5.196;2022-12-10T02:24:57;0.40;99.90
20732;DHT22;10527;52.124;5.196;2022-12-10T02:30:19;0.40;99.90
20732;DHT22;10527;52.124;5.196;2022-12-10T02:32:48;0.40;99.90
20732;DHT22;10527;52.124;5.196;2022-12-10T02:35:24;0.40;99.90
20732;DHT22;10527;52.124;5.196;2022-12-10T02:38:00;0.40;99.90
20732;DHT22;10527;52.124;5.196;2022-12-10T02:40:32;0.50;99.90
20732;DHT22;10527;52.124;5.196;2022-12-10T02:43:03;0.60;99.90
20732;DHT22;10527;52.124;5.196;2022-12-10T02:45:31;0.60;99.90
20732;DHT22;10527;52.124;5.196;2022-12-10T02:48:01;0.60;99.90
20732;DHT22;10527;52.124;5.196;2022-12-10T02:50:29;0.70;99.90
20732;DHT22;10527;52.124;5.196;2022-12-10T02:52:57;0.70;99.90
20732;DHT22;10527;52.124;5.196;2022-12-10T02:55:24;0.70;99.90
20732;DHT22;10527;52.124;5.196;2022-12-10T03:01:04;0.70;99.90
20732;DHT22;10527;52.124;5.196;2022-12-10T03:03:46;0.70;99.90
20732;DHT22;10527;52.124;5.196;2022-12-10T03:06:21;0.70;99.90
20732;DHT22;10527;52.124;5.196;2022-12-10T03:09:20;0.70;99.90
20732;DHT22;10527;52.124;5.196;2022-12-10T03:12:09;0.70;99.90
20732;DHT22;10527;52.124;5.196;2022-12-10T03:14:46;0.50;99.90
20732;DHT22;10527;52.124;5.196;2022-12-10T03:17:15;0.60;99.90
20732;DHT22;10527;52.124;5.196;2022-12-10T03:19:46;0.60;99.90
20732;DHT22;10527;52.124;5.196;2022-12-10T03:22:18;0.60;99.90
20732;DHT22;10527;52.124;5.196;2022-12-10T03:24:48;0.70;99.90
20732;DHT22;10527;52.124;5.196;2022-12-10T03:27:19;0.80;99.90
20732;DHT22;10527;52.124;5.196;2022-12-10T03:29:54;0.80;99.90
20732;DHT22;10527;52.124;5.196;2022-12-10T03:32:25;0.60;99.90
20732;DHT22;10527;52.124;5.196;2022-12-10T03:34:56;0.60;99.90
20732;DHT22;10527;52.124;5.196;2022-12-10T03:37:28;0.70;99.90
20732;DHT22;10527;52.124;5.196;2022-12-10T03:39:57;0.60;99.90
20732;DHT22;10527;52.124;5.196;2022-12-10T03:42:25;0.70;99.90
20732;DHT22;10527;52.124;5.196;2022-12-10T03:44:51;0.70;99.90
20732;DHT22;10527;52.124;5.196;2022-12-10T03:47:19;0.70;99.90
20732;DHT22;10527;52.124;5.196;2022-12-10T03:49:46;0.70;99.90
20732;DHT22;10527;52.124;5.196;2022-12-10T03:52:13;0.80;99.90
20732;DHT22;10527;52.124;5.196;2022-12-10T03:54:40;0.80;99.90
20732;DHT22;10527;52.124;5.196;2022-12-10T03:57:07;0.70;99.90
20732;DHT22;10527;52.124;5.196;2022-12-10T03:59:34;0.80;99.90
20732;DHT22;10527;52.124;5.196;2022-12-10T04:02:01;0.80;99.90
20732;DHT22;10527;52.124;5.196;2022-12-10T04:04:29;0.80;99.90
20732;DHT22;10527;52.124;5.196;2022-12-10T04:06:56;0.80;99.90
20732;DHT22;10527;52.124;5.196;2022-12-10T04:09:23;0.70;99.90
20732;DHT22;10527;52.124;5.196;2022-12-10T04:11:49;0.80;99.90
20732;DHT22;10527;52.124;5.196;2022-12-10T04:14:16;0.80;99.90
20732;DHT22;10527;52.124;5.196;2022-12-10T04:17:03;0.80;99.90
20732;DHT22;10527;52.124;5.196;2022-12-10T04:19:30;0.80;99.90
20732;DHT22;10527;52.124;5.196;2022-12-10T04:22:00;0.80;99.90
20732;DHT22;10527;52.124;5.196;2022-12-10T04:24:45;0.80;99.90
20732;DHT22;10527;52.124;5.196;2022-12-10T04:27:35;0.70;99.90
20732;DHT22;10527;52.124;5.196;2022-12-10T04:30:07;0.90;99.90
20732;DHT22;10527;52.124;5.196;2022-12-10T04:32:36;0.80;99.90
20732;DHT22;10527;52.124;5.196;2022-12-10T04:35:04;0.70;99.90
20732;DHT22;10527;52.124;5.196;2022-12-10T04:37:31;0.80;99.90
20732;DHT22;10527;52.124;5.196;2022-12-10T04:39:59;0.60;99.90
20732;DHT22;10527;52.124;5.196;2022-12-10T04:42:25;0.60;99.90
20732;DHT22;10527;52.124;5.196;2022-12-10T04:44:55;0.50;99.90
20732;DHT22;10527;52.124;5.196;2022-12-10T04:47:22;0.50;99.90
20732;DHT22;10527;52.124;5.196;2022-12-10T04:49:51;0.40;99.90
20732;DHT22;10527;52.124;5.196;2022-12-10T04:52:18;0.40;99.90
20732;DHT22;10527;52.124;5.196;2022-12-10T04:54:45;0.50;99.90
20732;DHT22;10527;52.124;5.196;2022-12-10T04:57:12;0.40;99.90
20732;DHT22;10527;52.124;5.196;2022-12-10T04:59:40;0.50;99.90
20732;DHT22;10527;52.124;5.196;2022-12-10T05:02:08;0.40;99.90
20732;DHT22;10527;52.124;5.196;2022-12-10T05:04:35;0.40;99.90
20732;DHT22;10527;52.124;5.196;2022-12-10T05:07:02;0.40;99.90
20732;DHT22;10527;52.124;5.196;2022-12-10T05:09:29;0.50;99.90
20732;DHT22;10527;52.124;5.196;2022-12-10T05:11:56;0.50;99.90
20732;DHT22;10527;52.124;5.196;2022-12-10T05:14:22;0.50;99.90
20732;DHT22;10527;52.124;5.196;2022-12-10T05:16:51;0.60;99.90
20732;DHT22;10527;52.124;5.196;2022-12-10T05:19:18;0.60;99.90
20732;DHT22;10527;52.124;5.196;2022-12-10T05:21:50;0.60;99.90
20732;DHT22;10527;52.124;5.196;2022-12-10T05:24:36;0.50;99.90
20732;DHT22;10527;52.124;5.196;2022-12-10T05:27:03;0.50;99.90
20732;DHT22;10527;52.124;5.196;2022-12-10T05:29:32;0.40;99.90
20732;DHT22;10527;52.124;5.196;2022-12-10T05:31:59;0.40;99.90
20732;DHT22;10527;52.124;5.196;2022-12-10T05:34:26;0.40;99.90
20732;DHT22;10527;52.124;5.196;2022-12-10T05:36:53;0.40;99.90
20732;DHT22;10527;52.124;5.196;2022-12-10T05:39:20;0.40;99.90
20732;DHT22;10527;52.124;5.196;2022-12-10T05:41:49;0.40;99.90
20732;DHT22;10527;52.124;5.196;2022-12-10T05:44:16;0.40;99.90
20732;DHT22;10527;52.124;5.196;2022-12-10T05:46:43;0.40;99.90
20732;DHT22;10527;52.124;5.196;2022-12-10T05:49:10;0.40;99.90
20732;DHT22;10527;52.124;5.196;2022-12-10T05:51:37;0.30;99.90
20732;DHT22;10527;52.124;5.196;2022-12-10T05:54:05;0.50;99.90
20732;DHT22;10527;52.124;5.196;2022-12-10T05:56:34;0.40;99.90
20732;DHT22;10527;52.124;5.196;2022-12-10T05:59:02;0.50;99.90
20732;DHT22;10527;52.124;5.196;2022-12-10T06:01:32;0.40;99.90
20732;DHT22;10527;52.124;5.196;2022-12-10T06:04:02;0.30;99.90
20732;DHT22;10527;52.124;5.196;2022-12-10T06:06:33;0.40;99.90
20732;DHT22;10527;52.124;5.196;2022-12-10T06:09:05;0.30;99.90
20732;DHT22;10527;52.124;5.196;2022-12-10T06:11:33;0.30;99.90
20732;DHT22;10527;52.124;5.196;2022-12-10T06:14:00;0.40;99.90
20732;DHT22;10527;52.124;5.196;2022-12-10T06:16:29;0.50;99.90
20732;DHT22;10527;52.124;5.196;2022-12-10T06:18:57;0.50;99.90
20732;DHT22;10527;52.124;5.196;2022-12-10T06:21:25;0.50;99.90
20732;DHT22;10527;52.124;5.196;2022-12-10T06:23:52;0.50;99.90
20732;DHT22;10527;52.124;5.196;2022-12-10T06:26:24;0.30;99.90
20732;DHT22;10527;52.124;5.196;2022-12-10T06:28:53;0.30;99.90
20732;DHT22;10527;52.124;5.196;2022-12-10T06:31:21;0.50;99.90
20732;DHT22;10527;52.124;5.196;2022-12-10T06:33:49;0.40;99.90
20732;DHT22;10527;52.124;5.196;2022-12-10T06:36:17;0.30;99.90
20732;DHT22;10527;52.124;5.196;2022-12-10T06:38:45;0.40;99.90
20732;DHT22;10527;52.124;5.196;2022-12-10T06:41:15;0.50;99.90
20732;DHT22;10527;52.124;5.196;2022-12-10T06:43:43;0.50;99.90
20732;DHT22;10527;52.124;5.196;2022-12-10T06:46:12;0.50;99.90
20732;DHT22;10527;52.124;5.196;2022-12-10T06:48:41;0.50;99.90
20732;DHT22;10527;52.124;5.196;2022-12-10T06:51:11;0.50;99.90
20732;DHT22;10527;52.124;5.196;2022-12-10T06:53:40;0.50;99.90
20732;DHT22;10527;52.124;5.196;2022-12-10T06:56:20;0.60;99.90
20732;DHT22;10527;52.124;5.196;2022-12-10T06:58:47;0.70;99.90
20732;DHT22;10527;52.124;5.196;2022-12-10T07:01:21;0.60;99.90
20732;DHT22;10527;52.124;5.196;2022-12-10T07:03:54;0.70;99.90
20732;DHT22;10527;52.124;5.196;2022-12-10T07:06:23;0.70;99.90
20732;DHT22;10527;52.124;5.196;2022-12-10T07:08:52;0.70;99.90
20732;DHT22;10527;52.124;5.196;2022-12-10T07:11:22;0.80;99.90
20732;DHT22;10527;52.124;5.196;2022-12-10T07:13:52;0.70;99.90
20732;DHT22;10527;52.124;5.196;2022-12-10T07:16:21;0.70;99.90
20732;DHT22;10527;52.124;5.196;2022-12-10T07:18:52;0.60;99.90
20732;DHT22;10527;52.124;5.196;2022-12-10T07:21:32;0.60;99.90
20732;DHT22;10527;52.124;5.196;2022-12-10T07:24:06;0.60;99.90
20732;DHT22;10527;52.124;5.196;2022-12-10T07:26:38;0.70;99.90
20732;DHT22;10527;52.124;5.196;2022-12-10T07:29:08;0.80;99.90
20732;DHT22;10527;52.124;5.196;2022-12-10T07:31:39;0.80;99.90
20732;DHT22;10527;52.124;5.196;2022-12-10T07:34:07;0.80;99.90
20732;DHT22;10527;52.124;5.196;2022-12-10T07:36:36;0.80;99.90
20732;DHT22;10527;52.124;5.196;2022-12-10T07:39:07;0.80;99.90
20732;DHT22;10527;52.124;5.196;2022-12-10T07:41:47;0.80;99.90
20732;DHT22;10527;52.124;5.196;2022-12-10T07:44:25;0.70;99.90
20732;DHT22;10527;52.124;5.196;2022-12-10T07:46:54;0.80;99.90
20732;DHT22;10527;52.124;5.196;2022-12-10T07:49:22;0.80;99.90
20732;DHT22;10527;52.124;5.196;2022-12-10T07:51:49;0.80;99.90
20732;DHT22;10527;52.124;5.196;2022-12-10T07:54:20;0.80;99.90
20732;DHT22;10527;52.124;5.196;2022-12-10T07:56:47;0.80;99.90
20732;DHT22;10527;52.124;5.196;2022-12-10T07:59:14;0.80;99.90
20732;DHT22;10527;52.124;5.196;2022-12-10T08:01:41;0.80;99.90
20732;DHT22;10527;52.124;5.196;2022-12-10T08:04:08;0.80;99.90
20732;DHT22;10527;52.124;5.196;2022-12-10T08:06:34;0.70;99.90
20732;DHT22;10527;52.124;5.196;2022-12-10T08:09:01;0.80;99.90
20732;DHT22;10527;52.124;5.196;2022-12-10T08:11:29;0.60;99.90
20732;DHT22;10527;52.124;5.196;2022-12-10T08:13:56;0.50;99.90
20732;DHT22;10527;52.124;5.196;2022-12-10T08:16:27;0.50;99.90
20732;DHT22;10527;52.124;5.196;2022-12-10T08:18:57;0.60;99.90
20732;DHT22;10527;52.124;5.196;2022-12-10T08:21:28;0.60;99.90
20732;DHT22;10527;52.124;5.196;2022-12-10T08:23:56;0.60;99.90
20732;DHT22;10527;52.124;5.196;2022-12-10T08:26:30;0.70;99.90
20732;DHT22;10527;52.124;5.196;2022-12-10T08:28:59;0.70;99.90
20732;DHT22;10527;52.124;5.196;2022-12-10T08:31:27;0.70;99.90
20732;DHT22;10527;52.124;5.196;2022-12-10T08:34:02;0.70;99.90
20732;DHT22;10527;52.124;5.196;2022-12-10T08:36:31;0.60;99.90
20732;DHT22;10527;52.124;5.196;2022-12-10T08:39:00;0.60;99.90
20732;DHT22;10527;52.124;5.196;2022-12-10T08:41:27;0.60;99.90
20732;DHT22;10527;52.124;5.196;2022-12-10T08:43:54;0.50;99.90
20732;DHT22;10527;52.124;5.196;2022-12-10T08:46:21;0.60;99.90
20732;DHT22;10527;52.124;5.196;2022-12-10T08:48:49;0.70;99.90
20732;DHT22;10527;52.124;5.196;2022-12-10T08:51:17;0.60;99.90
20732;DHT22;10527;52.124;5.196;2022-12-10T08:53:45;0.60;99.90
20732;DHT22;10527;52.124;5.196;2022-12-10T08:56:12;0.70;99.90
20732;DHT22;10527;52.124;5.196;2022-12-10T08:58:39;0.60;99.90
20732;DHT22;10527;52.124;5.196;2022-12-10T09:01:15;0.70;99.90
20732;DHT22;10527;52.124;5.196;2022-12-10T09:03:44;0.70;99.90
20732;DHT22;10527;52.124;5.196;2022-12-10T09:06:14;0.70;99.90
20732;DHT22;10527;52.124;5.196;2022-12-10T09:08:43;0.80;99.90
20732;DHT22;10527;52.124;5.196;2022-12-10T09:11:16;0.80;99.90
20732;DHT22;10527;52.124;5.196;2022-12-10T09:13:45;0.90;99.90
20732;DHT22;10527;52.124;5.196;2022-12-10T09:16:12;0.80;99.90
20732;DHT22;10527;52.124;5.196;2022-12-10T09:18:40;0.80;99.90
20732;DHT22;10527;52.124;5.196;2022-12-10T09:21:09;0.80;99.90
20732;DHT22;10527;52.124;5.196;2022-12-10T09:23:39;0.80;99.90
20732;DHT22;10527;52.124;5.196;2022-12-10T09:26:09;0.80;99.90
20732;DHT22;10527;52.124;5.196;2022-12-10T09:28:38;0.70;99.90
20732;DHT22;10527;52.124;5.196;2022-12-10T09:31:06;0.70;99.90
20732;DHT22;10527;52.124;5.196;2022-12-10T09:33:42;0.50;99.90
20732;DHT22;10527;52.124;5.196;2022-12-10T09:36:11;0.50;99.90
20732;DHT22;10527;52.124;5.196;2022-12-10T09:38:41;0.50;99.90
20732;DHT22;10527;52.124;5.196;2022-12-10T09:47:43;0.60;99.90
20732;DHT22;10527;52.124;5.196;2022-12-10T09:50:45;0.60;99.90
20732;DHT22;10527;52.124;5.196;2022-12-10T09:53:17;0.70;99.90
20732;DHT22;10527;52.124;5.196;2022-12-10T09:55:48;0.50;99.90
20732;DHT22;10527;52.124;5.196;2022-12-10T09:58:20;0.60;99.90
20732;DHT22;10527;52.124;5.196;2022-12-10T10:01:02;0.70;99.90
20732;DHT22;10527;52.124;5.196;2022-12-10T10:03:58;0.70;99.90
20732;DHT22;10527;52.124;5.196;2022-12-10T10:06:30;0.60;99.90
20732;DHT22;10527;52.124;5.196;2022-12-10T10:09:00;0.70;99.90
20732;DHT22;10527;52.124;5.196;2022-12-10T10:11:32;0.80;99.90
20732;DHT22;10527;52.124;5.196;2022-12-10T10:14:12;0.80;99.90
20732;DHT22;10527;52.124;5.196;2022-12-10T10:19:28;0.90;99.90
20732;DHT22;10527;52.124;5.196;2022-12-10T10:21:58;0.90;99.90
20732;DHT22;10527;52.124;5.196;2022-12-10T10:24:36;0.80;99.90
20732;DHT22;10527;52.124;5.196;2022-12-10T10:27:17;0.90;99.90
20732;DHT22;10527;52.124;5.196;2022-12-10T10:29:58;1.00;99.90
20732;DHT22;10527;52.124;5.196;2022-12-10T10:32:49;1.00;99.90
20732;DHT22;10527;52.124;5.196;2022-12-10T10:35:32;1.00;99.90
20732;DHT22;10527;52.124;5.196;2022-12-10T10:38:15;0.90;99.90
20732;DHT22;10527;52.124;5.196;2022-12-10T10:41:05;1.00;99.90
20732;DHT22;10527;52.124;5.196;2022-12-10T10:43:43;0.80;99.90
20732;DHT22;10527;52.124;5.196;2022-12-10T10:46:27;0.70;99.90
20732;DHT22;10527;52.124;5.196;2022-12-10T10:49:18;0.80;99.90
20732;DHT22;10527;52.124;5.196;2022-12-10T10:52:14;0.80;99.90
20732;DHT22;10527;52.124;5.196;2022-12-10T10:54:44;0.80;99.90
20732;DHT22;10527;52.124;5.196;2022-12-10T10:57:25;0.80;99.90
20732;DHT22;10527;52.124;5.196;2022-12-10T11:00:03;0.80;99.90
20732;DHT22;10527;52.124;5.196;2022-12-10T11:02:37;0.90;99.90
20732;DHT22;10527;52.124;5.196;2022-12-10T11:05:25;1.00;99.90
20732;DHT22;10527;52.124;5.196;2022-12-10T11:08:03;1.10;99.90
20732;DHT22;10527;52.124;5.196;2022-12-10T11:10:33;1.00;99.90
20732;DHT22;10527;52.124;5.196;2022-12-10T11:13:26;0.90;99.90
20732;DHT22;10527;52.124;5.196;2022-12-10T11:16:23;0.90;99.90
20732;DHT22;10527;52.124;5.196;2022-12-10T11:18:59;0.80;99.90
20732;DHT22;10527;52.124;5.196;2022-12-10T11:21:32;0.80;99.90
20732;DHT22;10527;52.124;5.196;2022-12-10T11:24:09;0.80;99.90
20732;DHT22;10527;52.124;5.196;2022-12-10T11:29:46;0.80;99.90
20732;DHT22;10527;52.124;5.196;2022-12-10T11:38:20;0.70;99.90
20732;DHT22;10527;52.124;5.196;2022-12-10T11:41:16;0.70;99.90
20732;DHT22;10527;52.124;5.196;2022-12-10T11:44:12;0.80;99.90
20732;DHT22;10527;52.124;5.196;2022-12-10T11:47:17;0.80;99.90
20732;DHT22;10527;52.124;5.196;2022-12-10T11:50:16;0.70;99.90
20732;DHT22;10527;52.124;5.196;2022-12-10T11:53:40;0.60;99.90
20732;DHT22;10527;52.124;5.196;2022-12-10T12:17:11;0.80;99.90
20732;DHT22;10527;52.124;5.196;2022-12-10T12:19:57;0.80;99.90
20732;DHT22;10527;52.124;5.196;2022-12-10T12:22:47;0.90;99.90
20732;DHT22;10527;52.124;5.196;2022-12-10T12:25:26;0.80;99.90
20732;DHT22;10527;52.124;5.196;2022-12-10T12:28:24;0.80;99.90
20732;DHT22;10527;52.124;5.196;2022-12-10T12:31:15;0.80;99.90
20732;DHT22;10527;52.124;5.196;2022-12-10T12:33:54;0.80;99.90
20732;DHT22;10527;52.124;5.196;2022-12-10T12:36:28;0.90;99.90
20732;DHT22;10527;52.124;5.196;2022-12-10T12:49:51;0.90;99.90
20732;DHT22;10527;52.124;5.196;2022-12-10T12:52:29;0.90;99.90
20732;DHT22;10527;52.124;5.196;2022-12-10T13:04:11;0.90;99.90
20732;DHT22;10527;52.124;5.196;2022-12-10T13:06:39;1.00;99.90
20732;DHT22;10527;52.124;5.196;2022-12-10T13:12:29;1.10;99.90
20732;DHT22;10527;52.124;5.196;2022-12-10T13:15:00;1.10;99.90
20732;DHT22;10527;52.124;5.196;2022-12-10T13:17:38;1.10;99.90
20732;DHT22;10527;52.124;5.196;2022-12-10T13:20:31;1.00;99.90
20732;DHT22;10527;52.124;5.196;2022-12-10T13:23:03;1.00;99.90
20732;DHT22;10527;52.124;5.196;2022-12-10T13:28:40;1.00;99.90
20732;DHT22;10527;52.124;5.196;2022-12-10T13:34:22;0.90;99.90
20732;DHT22;10527;52.124;5.196;2022-12-10T13:37:10;1.00;99.90
20732;DHT22;10527;52.124;5.196;2022-12-10T13:39:48;1.00;99.90
20732;DHT22;10527;52.124;5.196;2022-12-10T13:42:31;1.00;99.90
20732;DHT22;10527;52.124;5.196;2022-12-10T13:45:35;1.00;99.90
20732;DHT22;10527;52.124;5.196;2022-12-10T13:48:30;0.90;99.90
20732;DHT22;10527;52.124;5.196;2022-12-10T13:51:10;0.90;99.90
20732;DHT22;10527;52.124;5.196;2022-12-10T14:08:29;0.80;99.90
20732;DHT22;10527;52.124;5.196;2022-12-10T14:11:00;0.70;99.90
20732;DHT22;10527;52.124;5.196;2022-12-10T14:13:39;0.70;99.90
20732;DHT22;10527;52.124;5.196;2022-12-10T14:16:11;0.80;99.90
20732;DHT22;10527;52.124;5.196;2022-12-10T14:18:45;0.90;99.90
20732;DHT22;10527;52.124;5.196;2022-12-10T14:21:19;0.90;99.90
20732;DHT22;10527;52.124;5.196;2022-12-10T14:23:48;0.80;99.90
20732;DHT22;10527;52.124;5.196;2022-12-10T14:26:42;0.90;99.90
20732;DHT22;10527;52.124;5.196;2022-12-10T14:29:20;0.70;99.90
20732;DHT22;10527;52.124;5.196;2022-12-10T14:31:54;0.70;99.90
20732;DHT22;10527;52.124;5.196;2022-12-10T14:34:25;0.80;99.90
20732;DHT22;10527;52.124;5.196;2022-12-10T14:36:57;0.70;99.90
20732;DHT22;10527;52.124;5.196;2022-12-10T14:39:30;0.80;99.90
20732;DHT22;10527;52.124;5.196;2022-12-10T14:42:03;0.80;99.90
20732;DHT22;10527;52.124;5.196;2022-12-10T14:44:37;0.90;99.90
20732;DHT22;10527;52.124;5.196;2022-12-10T14:47:16;0.90;99.90
20732;DHT22;10527;52.124;5.196;2022-12-10T14:49:46;0.80;99.90
20732;DHT22;10527;52.124;5.196;2022-12-10T14:52:21;0.80;99.90
20732;DHT22;10527;52.124;5.196;2022-12-10T14:54:53;0.90;99.90
20732;DHT22;10527;52.124;5.196;2022-12-10T14:57:57;1.00;99.90
20732;DHT22;10527;52.124;5.196;2022-12-10T15:00:23;1.00;99.90
20732;DHT22;10527;52.124;5.196;2022-12-10T15:02:56;1.10;99.90
20732;DHT22;10527;52.124;5.196;2022-12-10T15:05:30;1.00;99.90
20732;DHT22;10527;52.124;5.196;2022-12-10T15:08:05;1.00;99.90
20732;DHT22;10527;52.124;5.196;2022-12-10T15:10:46;1.00;99.90
20732;DHT22;10527;52.124;5.196;2022-12-10T15:13:22;1.00;99.90
20732;DHT22;10527;52.124;5.196;2022-12-10T15:15:59;1.10;99.90
20732;DHT22;10527;52.124;5.196;2022-12-10T15:18:39;1.10;99.90
20732;DHT22;10527;52.124;5.196;2022-12-10T15:21:20;1.10;99.90
20732;DHT22;10527;52.124;5.196;2022-12-10T15:23:50;1.10;99.90
20732;DHT22;10527;52.124;5.196;2022-12-10T15:26:33;1.10;99.90
20732;DHT22;10527;52.124;5.196;2022-12-10T15:32:06;1.00;99.90
20732;DHT22;10527;52.124;5.196;2022-12-10T15:34:46;1.00;99.90
20732;DHT22;10527;52.124;5.196;2022-12-10T15:37:22;1.10;99.90
20732;DHT22;10527;52.124;5.196;2022-12-10T15:39:55;1.10;99.90
20732;DHT22;10527;52.124;5.196;2022-12-10T15:42:35;1.10;99.90
20732;DHT22;10527;52.124;5.196;2022-12-10T15:48:08;1.20;99.90
20732;DHT22;10527;52.124;5.196;2022-12-10T15:50:42;1.20;99.90
20732;DHT22;10527;52.124;5.196;2022-12-10T15:53:13;1.20;99.90
20732;DHT22;10527;52.124;5.196;2022-12-10T15:55:46;1.20;99.90
20732;DHT22;10527;52.124;5.196;2022-12-10T15:58:15;1.20;99.90
20732;DHT22;10527;52.124;5.196;2022-12-10T16:00:42;1.20;99.90
20732;DHT22;10527;52.124;5.196;2022-12-10T16:03:15;1.20;99.90
20732;DHT22;10527;52.124;5.196;2022-12-10T16:05:47;1.30;99.90
20732;DHT22;10527;52.124;5.196;2022-12-10T16:08:26;1.30;99.90
20732;DHT22;10527;52.124;5.196;2022-12-10T16:11:06;1.30;99.90
20732;DHT22;10527;52.124;5.196;2022-12-10T16:13:49;1.40;99.90
20732;DHT22;10527;52.124;5.196;2022-12-10T16:16:19;1.50;99.90
20732;DHT22;10527;52.124;5.196;2022-12-10T16:18:46;1.40;99.90
20732;DHT22;10527;52.124;5.196;2022-12-10T16:21:13;1.40;99.90
20732;DHT22;10527;52.124;5.196;2022-12-10T16:23:40;1.40;99.90
20732;DHT22;10527;52.124;5.196;2022-12-10T16:26:15;1.40;99.90
20732;DHT22;10527;52.124;5.196;2022-12-10T16:28:46;1.40;99.90
20732;DHT22;10527;52.124;5.196;2022-12-10T16:31:19;1.40;99.90
20732;DHT22;10527;52.124;5.196;2022-12-10T16:33:47;1.40;99.90
20732;DHT22;10527;52.124;5.196;2022-12-10T16:36:19;1.40;99.90
20732;DHT22;10527;52.124;5.196;2022-12-10T16:38:48;1.30;99.90
20732;DHT22;10527;52.124;5.196;2022-12-10T16:41:22;1.40;99.90
20732;DHT22;10527;52.124;5.196;2022-12-10T16:43:50;1.30;99.90
20732;DHT22;10527;52.124;5.196;2022-12-10T16:46:17;1.30;99.90
20732;DHT22;10527;52.124;5.196;2022-12-10T16:48:44;1.30;99.90
20732;DHT22;10527;52.124;5.196;2022-12-10T16:51:20;1.30;99.90
20732;DHT22;10527;52.124;5.196;2022-12-10T16:53:50;1.20;99.90
20732;DHT22;10527;52.124;5.196;2022-12-10T16:56:19;1.20;99.90
20732;DHT22;10527;52.124;5.196;2022-12-10T16:58:47;1.20;99.90
20732;DHT22;10527;52.124;5.196;2022-12-10T17:01:20;1.20;99.90
20732;DHT22;10527;52.124;5.196;2022-12-10T17:03:50;1.30;99.90
20732;DHT22;10527;52.124;5.196;2022-12-10T17:06:19;1.40;99.90
20732;DHT22;10527;52.124;5.196;2022-12-10T17:08:47;1.50;99.90
20732;DHT22;10527;52.124;5.196;2022-12-10T17:11:21;1.50;99.90
20732;DHT22;10527;52.124;5.196;2022-12-10T17:14:25;1.50;99.90
20732;DHT22;10527;52.124;5.196;2022-12-10T17:16:58;1.60;99.90
20732;DHT22;10527;52.124;5.196;2022-12-10T17:19:37;1.60;99.90
20732;DHT22;10527;52.124;5.196;2022-12-10T17:22:09;1.60;99.90
20732;DHT22;10527;52.124;5.196;2022-12-10T17:24:37;1.70;99.90
20732;DHT22;10527;52.124;5.196;2022-12-10T17:27:24;1.60;99.90
20732;DHT22;10527;52.124;5.196;2022-12-10T17:29:53;1.60;99.90
20732;DHT22;10527;52.124;5.196;2022-12-10T17:32:21;1.60;99.90
20732;DHT22;10527;52.124;5.196;2022-12-10T17:34:49;1.60;99.90
20732;DHT22;10527;52.124;5.196;2022-12-10T17:37:18;1.60;99.90
20732;DHT22;10527;52.124;5.196;2022-12-10T17:39:46;1.60;99.90
20732;DHT22;10527;52.124;5.196;2022-12-10T17:42:13;1.50;99.90
20732;DHT22;10527;52.124;5.196;2022-12-10T17:44:39;1.60;99.90
20732;DHT22;10527;52.124;5.196;2022-12-10T17:47:20;1.60;99.90
20732;DHT22;10527;52.124;5.196;2022-12-10T17:49:50;1.60;99.90
20732;DHT22;10527;52.124;5.196;2022-12-10T17:52:17;1.60;99.90
20732;DHT22;10527;52.124;5.196;2022-12-10T17:54:44;1.70;99.90
20732;DHT22;10527;52.124;5.196;2022-12-10T17:57:17;1.60;99.90
20732;DHT22;10527;52.124;5.196;2022-12-10T17:59:46;1.60;99.90
20732;DHT22;10527;52.124;5.196;2022-12-10T18:02:14;1.60;99.90
20732;DHT22;10527;52.124;5.196;2022-12-10T18:04:41;1.60;99.90